Time;durP1;ratioP1;P1;durP2;ratioP2;P2;SDS_P1;SDS_P2;PMS_P1;PMS_P2;Temp;Humidity;BMP_temperature;BMP_pressure;BME280_temperature;BME280_humidity;BME280_pressure;Samples;Min_cycle;Max_cycle;Signal;HPM_P1;HPM_P2
2022/12/26 00:01:51;;;;;;;76.00;30.48;;;8.20;99.90;;;;;;4937558;29;20483;-73
2022/12/26 00:04:17;;;;;;;72.38;29.67;;;8.20;99.90;;;;;;4936088;29;20079;-74
2022/12/26 00:06:42;;;;;;;63.22;28.25;;;8.20;99.90;;;;;;4921606;29;20090;-73
2022/12/26 00:09:08;;;;;;;283.85;41.65;;;8.20;99.90;;;;;;4936467;28;20065;-73
2022/12/26 00:11:35;;;;;;;74.85;28.75;;;8.20;99.90;;;;;;4937257;29;20399;-74
2022/12/26 00:14:13;;;;;;;77.10;28.55;;;8.20;99.90;;;;;;4921072;28;20055;-73
2022/12/26 00:16:40;;;;;;;61.10;26.98;;;8.20;99.90;;;;;;4938326;29;20508;-73
2022/12/26 00:19:06;;;;;;;68.75;28.02;;;8.20;99.90;;;;;;4940609;28;20507;-73
2022/12/26 00:21:32;;;;;;;86.47;29.38;;;8.20;99.90;;;;;;4941241;29;20071;-73
2022/12/26 00:23:58;;;;;;;63.60;28.35;;;8.20;99.90;;;;;;4924432;28;20054;-73
2022/12/26 00:26:27;;;;;;;71.28;27.45;;;8.20;99.90;;;;;;4940785;29;20047;-73
2022/12/26 00:28:54;;;;;;;102.45;31.40;;;8.20;99.90;;;;;;4940524;29;20094;-73
2022/12/26 00:31:23;;;;;;;109.43;32.78;;;8.20;99.90;;;;;;4940592;28;20057;-73
2022/12/26 00:33:49;;;;;;;67.47;27.77;;;8.20;99.90;;;;;;4940580;29;20476;-74
2022/12/26 00:36:18;;;;;;;190.50;35.90;;;8.20;99.90;;;;;;4957600;28;20054;-73
2022/12/26 00:38:45;;;;;;;70.10;28.70;;;8.20;99.90;;;;;;4940182;29;20055;-74
2022/12/26 00:41:12;;;;;;;78.20;29.00;;;8.20;99.90;;;;;;4940489;28;20062;-73
2022/12/26 00:43:38;;;;;;;156.85;36.55;;;8.20;99.90;;;;;;4937405;28;20059;-74
2022/12/26 00:46:05;;;;;;;106.13;32.65;;;8.20;99.90;;;;;;4934324;29;20047;-74
2022/12/26 00:48:30;;;;;;;130.40;34.33;;;8.20;99.90;;;;;;4940639;28;20066;-74
2022/12/26 00:50:56;;;;;;;84.18;30.05;;;8.20;99.90;;;;;;4940812;29;20051;-74
2022/12/26 00:53:23;;;;;;;85.95;31.15;;;8.10;99.90;;;;;;4956282;28;20047;-74
2022/12/26 00:55:50;;;;;;;90.57;29.40;;;8.20;99.90;;;;;;4940743;29;20519;-74
2022/12/26 00:58:16;;;;;;;58.05;26.90;;;8.20;99.90;;;;;;4924894;29;20047;-73
2022/12/26 01:00:41;;;;;;;94.78;31.17;;;8.20;99.90;;;;;;4940433;29;20472;-74
2022/12/26 01:03:09;;;;;;;60.55;26.90;;;8.20;99.90;;;;;;4908355;29;20047;-74
2022/12/26 01:05:34;;;;;;;58.88;26.20;;;7.10;99.90;;;;;;4940021;28;20065;-74
2022/12/26 01:08:00;;;;;;;151.27;34.45;;;8.20;99.90;;;;;;4939481;29;20475;-74
2022/12/26 01:10:27;;;;;;;115.93;30.67;;;8.20;99.90;;;;;;4940336;28;20454;-74
2022/12/26 01:12:53;;;;;;;62.38;26.27;;;8.20;99.90;;;;;;4956764;28;20087;-74
2022/12/26 01:15:19;;;;;;;70.57;27.85;;;8.20;99.90;;;;;;4940050;29;20055;-75
2022/12/26 01:17:45;;;;;;;122.45;32.17;;;8.20;99.90;;;;;;4939646;29;20134;-74
2022/12/26 01:20:11;;;;;;;79.13;28.65;;;8.20;99.90;;;;;;4940088;29;20083;-74
2022/12/26 01:22:37;;;;;;;85.22;28.98;;;8.20;99.90;;;;;;4939110;28;20047;-75
2022/12/26 01:25:03;;;;;;;78.45;27.90;;;8.20;99.90;;;;;;4939817;29;20058;-74
2022/12/26 01:27:29;;;;;;;114.85;32.05;;;8.20;99.90;;;;;;4938501;28;20424;-75
2022/12/26 01:29:55;;;;;;;73.07;28.48;;;8.30;99.90;;;;;;4955309;28;20051;-75
2022/12/26 01:32:21;;;;;;;77.82;28.90;;;8.30;99.90;;;;;;4939856;28;20499;-74
2022/12/26 01:34:48;;;;;;;69.85;27.38;;;8.30;99.90;;;;;;4924111;29;20047;-75
2022/12/26 01:37:15;;;;;;;98.03;28.17;;;8.30;99.90;;;;;;4938919;28;20529;-75
2022/12/26 01:39:41;;;;;;;58.15;23.83;;;8.30;99.90;;;;;;4957066;28;20047;-75
2022/12/26 01:42:15;;;;;;;70.65;25.23;;;8.30;99.90;;;;;;4939522;29;20399;-74
2022/12/26 01:45:02;;;;;;;75.75;25.73;;;8.30;99.90;;;;;;4923634;29;20518;-75
2022/12/26 01:47:48;;;;;;;47.58;20.65;;;8.30;99.90;;;;;;4936005;28;20043;-74
2022/12/26 01:51:03;;;;;;;47.72;20.95;;;8.30;99.90;;;;;;4956739;28;20051;-74
2022/12/26 01:53:34;;;;;;;53.60;22.23;;;8.30;99.90;;;;;;4917920;29;20059;-74
2022/12/26 01:56:15;;;;;;;54.50;21.67;;;8.30;99.90;;;;;;4939592;28;20488;-74
2022/12/26 01:59:13;;;;;;;62.33;24.90;;;8.30;99.90;;;;;;4939423;29;20050;-75
2022/12/26 02:01:42;;;;;;;64.82;24.63;;;8.40;99.90;;;;;;4927123;29;20299;-75
2022/12/26 02:06:58;;;;;;;47.70;22.30;;;8.40;99.90;;;;;;4963738;28;20047;-73
2022/12/26 02:09:24;;;;;;;52.63;22.48;;;8.40;99.90;;;;;;4911470;28;20385;-73
2022/12/26 02:11:57;;;;;;;52.13;22.45;;;8.40;99.90;;;;;;4944061;28;20043;-74
2022/12/26 02:14:24;;;;;;;46.53;22.48;;;8.40;99.90;;;;;;4938742;29;20127;-74
2022/12/26 02:16:49;;;;;;;47.53;22.05;;;8.40;99.90;;;;;;4938850;29;20048;-73
2022/12/26 02:19:43;;;;;;;52.90;22.80;;;8.40;99.90;;;;;;4955916;28;20058;-73
2022/12/26 02:22:56;;;;;;;57.17;24.88;;;8.50;99.90;;;;;;4926449;29;20062;-72
2022/12/26 02:25:59;;;;;;;45.13;21.45;;;8.50;99.90;;;;;;4881201;29;20446;-73
2022/12/26 02:28:50;;;;;;;44.90;21.00;;;8.50;99.90;;;;;;4896088;29;20184;-73
2022/12/26 02:31:38;;;;;;;45.28;22.23;;;8.50;99.90;;;;;;4901483;29;20083;-73
2022/12/26 02:34:18;;;;;;;49.13;23.88;;;8.50;99.90;;;;;;4942974;28;20122;-73
2022/12/26 02:37:03;;;;;;;51.70;24.40;;;8.50;99.90;;;;;;4938246;28;20155;-73
2022/12/26 02:40:00;;;;;;;54.47;25.83;;;8.50;99.90;;;;;;4937912;29;20409;-73
2022/12/26 02:42:42;;;;;;;47.92;25.05;;;8.50;99.90;;;;;;4916803;29;20071;-73
2022/12/26 02:48:28;;;;;;;51.25;25.42;;;8.50;99.90;;;;;;4948447;28;20135;-73
2022/12/26 03:14:40;;;;;;;61.40;34.88;;;8.60;99.90;;;;;;4938211;29;20062;-73
2022/12/26 03:17:18;;;;;;;60.80;34.67;;;8.60;99.90;;;;;;4937919;29;20083;-73
2022/12/26 03:19:59;;;;;;;66.78;36.00;;;8.60;99.90;;;;;;4955167;28;20067;-74
2022/12/26 03:22:40;;;;;;;64.15;34.60;;;8.60;99.90;;;;;;4937393;28;20138;-74
2022/12/26 03:27:57;;;;;;;71.43;38.47;;;8.70;99.90;;;;;;4936103;28;20066;-75
2022/12/26 03:35:52;;;;;;;76.38;39.25;;;8.70;99.90;;;;;;4954825;28;20058;-74
2022/12/26 03:38:23;;;;;;;77.10;40.28;;;8.70;99.90;;;;;;4943292;29;20055;-75
2022/12/26 04:19:33;;;;;;;81.68;39.83;;;8.80;99.90;;;;;;4942025;29;20062;-76
2022/12/26 04:44:32;;;;;;;66.50;32.30;;;8.80;99.90;;;;;;4939087;28;20066;-76
2022/12/26 04:46:59;;;;;;;66.32;31.48;;;8.80;99.90;;;;;;4940585;29;20043;-76
2022/12/26 04:50:25;;;;;;;63.40;33.55;;;8.90;99.90;;;;;;4939841;28;20050;-77
2022/12/26 04:52:20;;;;;;;60.97;31.42;;;8.80;99.90;;;;;;4930648;29;20501;-76
2022/12/26 04:54:46;;;;;;;64.47;32.70;;;8.90;99.90;;;;;;4909027;29;20055;-74
2022/12/26 04:57:11;;;;;;;67.75;34.00;;;8.90;99.90;;;;;;4939983;29;20051;-76
2022/12/26 04:59:37;;;;;;;72.93;34.47;;;8.80;99.90;;;;;;4957054;28;20086;-76
2022/12/26 05:10:27;;;;;;;61.10;31.67;;;8.70;99.90;;;;;;4939364;29;20051;-76
2022/12/26 05:12:53;;;;;;;62.65;32.80;;;8.80;99.90;;;;;;4939589;29;20055;-75
2022/12/26 05:15:20;;;;;;;63.95;33.08;;;8.80;99.90;;;;;;4942420;28;20436;-76
2022/12/26 05:29:02;;;;;;;65.20;33.30;;;8.80;99.90;;;;;;4938636;29;20521;-81
2022/12/26 05:31:28;;;;;;;52.78;30.55;;;8.80;99.90;;;;;;4924577;29;20059;-73
2022/12/26 05:34:07;;;;;;;54.20;32.17;;;8.70;99.90;;;;;;4956115;28;20554;-81
2022/12/26 05:36:55;;;;;;;56.67;31.77;;;8.80;99.90;;;;;;4940144;29;20060;-78
2022/12/26 05:39:21;;;;;;;52.88;31.75;;;8.80;99.90;;;;;;4928217;28;20101;-79
2022/12/26 05:41:47;;;;;;;52.50;32.22;;;8.70;99.90;;;;;;4950225;29;20507;-79
2022/12/26 05:44:13;;;;;;;52.47;31.00;;;8.70;99.90;;;;;;4925621;28;20130;-82
2022/12/26 05:46:41;;;;;;;49.28;29.95;;;8.70;99.90;;;;;;4920668;29;20051;-76
2022/12/26 05:49:07;;;;;;;48.53;31.20;;;8.70;99.90;;;;;;4916947;29;20050;-79
2022/12/26 05:51:33;;;;;;;47.20;29.92;;;8.70;99.90;;;;;;4955728;28;20043;-78
2022/12/26 05:53:59;;;;;;;48.30;30.45;;;8.70;99.90;;;;;;4938463;29;20400;-81
2022/12/26 05:56:24;;;;;;;46.08;31.02;;;8.70;99.90;;;;;;4939158;28;20051;-76
2022/12/26 05:58:58;;;;;;;51.92;31.55;;;8.60;99.90;;;;;;4936690;29;20054;-80
2022/12/26 06:01:26;;;;;;;49.63;31.88;;;8.70;99.90;;;;;;4939424;28;20126;-77
2022/12/26 06:03:54;;;;;;;49.38;31.40;;;8.60;99.90;;;;;;4939171;29;20058;-83
2022/12/26 06:06:20;;;;;;;50.30;31.40;;;8.60;99.90;;;;;;4938801;28;20055;-75
2022/12/26 06:08:48;;;;;;;52.97;32.53;;;8.70;99.90;;;;;;4922815;29;20086;-79
2022/12/26 06:11:14;;;;;;;50.17;30.65;;;8.40;99.90;;;;;;4923325;28;20051;-77
2022/12/26 06:13:40;;;;;;;46.80;29.50;;;8.60;99.90;;;;;;4938778;29;20055;-77
2022/12/26 06:16:12;;;;;;;48.35;31.33;;;8.70;99.90;;;;;;4939166;29;20106;-80
2022/12/26 06:18:38;;;;;;;47.70;31.67;;;8.70;99.90;;;;;;4936770;29;20507;-76
2022/12/26 06:21:10;;;;;;;47.67;30.95;;;8.60;99.90;;;;;;4938799;29;20126;-82
2022/12/26 06:23:36;;;;;;;;;;;8.60;99.90;;;;;;4922804;28;20070;-80
2022/12/26 06:26:02;;;;;;;47.80;29.65;;;8.50;99.90;;;;;;4938774;29;20422;-78
2022/12/26 06:28:28;;;;;;;47.13;30.85;;;8.60;99.90;;;;;;4937693;28;20154;-80
2022/12/26 06:31:00;;;;;;;44.38;28.10;;;8.60;99.90;;;;;;4938736;29;20122;-75
2022/12/26 06:33:25;;;;;;;44.60;28.70;;;8.60;99.90;;;;;;4922802;29;20052;-79
2022/12/26 06:35:51;;;;;;;44.13;28.05;;;8.60;99.90;;;;;;4938719;29;20081;-75
2022/12/26 06:38:17;;;;;;;43.00;29.17;;;8.60;99.90;;;;;;4938182;29;20087;-76
2022/12/26 06:40:42;;;;;;;41.38;27.55;;;8.60;99.90;;;;;;4923111;29;20047;-82
2022/12/26 06:43:08;;;;;;;42.70;30.13;;;8.60;99.90;;;;;;4951105;28;20048;-80
2022/12/26 06:45:35;;;;;;;46.78;30.20;;;8.60;99.90;;;;;;4936621;29;20122;-80
2022/12/26 06:48:01;;;;;;;46.47;30.00;;;8.60;99.90;;;;;;4937521;29;20050;-75
2022/12/26 06:50:27;;;;;;;44.78;29.90;;;8.60;99.90;;;;;;4937747;29;20047;-76
2022/12/26 06:52:53;;;;;;;45.47;29.52;;;8.60;99.90;;;;;;4937123;28;20517;-83
2022/12/26 06:55:22;;;;;;;42.85;27.80;;;8.60;99.90;;;;;;4922349;29;20132;-79
2022/12/26 06:57:51;;;;;;;42.70;28.90;;;8.60;99.90;;;;;;4938052;28;20395;-75
2022/12/26 07:00:17;;;;;;;42.60;28.75;;;8.60;99.90;;;;;;4938125;29;20126;-76
2022/12/26 07:02:42;;;;;;;41.38;28.75;;;8.60;99.90;;;;;;4922461;29;20178;-82
2022/12/26 07:05:08;;;;;;;41.80;28.08;;;8.60;99.90;;;;;;4938209;29;20494;-73
2022/12/26 07:07:34;;;;;;;41.67;29.25;;;8.70;99.90;;;;;;4936384;29;20118;-75
2022/12/26 07:09:59;;;;;;;38.22;26.27;;;8.70;99.90;;;;;;4908312;28;20051;-75
2022/12/26 07:12:25;;;;;;;41.67;29.10;;;8.70;99.90;;;;;;4934921;29;20099;-77
2022/12/26 07:14:51;;;;;;;41.22;27.60;;;8.60;99.90;;;;;;4936568;28;20065;-77
2022/12/26 07:17:16;;;;;;;40.95;29.80;;;8.60;99.90;;;;;;4954235;28;20095;-78
2022/12/26 07:19:42;;;;;;;43.47;29.35;;;8.50;99.90;;;;;;4935908;29;20441;-75
2022/12/26 07:22:08;;;;;;;44.20;29.58;;;8.50;99.90;;;;;;4913440;29;20114;-77
2022/12/26 07:24:33;;;;;;;43.25;29.58;;;8.50;99.90;;;;;;4937148;29;20050;-74
2022/12/26 07:26:59;;;;;;;43.53;30.33;;;8.40;99.90;;;;;;4953316;28;20563;-78
2022/12/26 07:29:25;;;;;;;42.28;29.30;;;8.40;99.90;;;;;;4954287;28;20053;-74
2022/12/26 07:31:50;;;;;;;45.10;30.70;;;8.30;99.90;;;;;;4932535;28;20081;-78
2022/12/26 07:34:16;;;;;;;45.72;30.75;;;8.30;99.90;;;;;;4900283;29;20484;-77
2022/12/26 07:36:42;;;;;;;47.20;30.65;;;8.30;99.90;;;;;;4949982;28;20043;-77
2022/12/26 07:39:08;;;;;;;43.40;30.02;;;8.20;99.90;;;;;;4934518;28;20055;-78
2022/12/26 07:44:17;;;;;;;46.60;31.42;;;8.20;99.90;;;;;;4925322;28;20057;-76
2022/12/26 07:46:45;;;;;;;48.45;32.05;;;8.10;99.90;;;;;;4920081;29;20047;-72
2022/12/26 07:49:11;;;;;;;48.00;31.95;;;8.10;99.90;;;;;;4927071;29;20055;-76
2022/12/26 07:51:37;;;;;;;51.55;33.03;;;8.10;99.90;;;;;;4932905;29;20043;-77
2022/12/26 07:54:03;;;;;;;54.30;33.65;;;8.00;99.90;;;;;;4916741;29;20054;-76
2022/12/26 07:56:30;;;;;;;51.80;33.25;;;8.00;99.90;;;;;;4941774;28;20082;-76
2022/12/26 07:58:56;;;;;;;49.97;31.50;;;7.90;99.90;;;;;;4933216;29;20400;-73
2022/12/26 08:01:22;;;;;;;48.97;31.52;;;8.00;99.90;;;;;;4943508;28;20048;-74
2022/12/26 08:03:49;;;;;;;53.25;33.38;;;8.00;99.90;;;;;;4937275;29;20044;-75
2022/12/26 08:06:15;;;;;;;47.35;31.55;;;7.90;99.90;;;;;;4935915;28;20051;-76
2022/12/26 08:08:41;;;;;;;43.50;29.55;;;7.90;99.90;;;;;;4922914;29;20116;-73
2022/12/26 08:11:11;;;;;;;53.85;33.67;;;8.00;99.90;;;;;;4928870;29;20122;-76
2022/12/26 08:13:37;;;;;;;48.05;32.65;;;7.90;99.90;;;;;;4933346;29;20047;-75
2022/12/26 08:16:07;;;;;;;49.55;32.70;;;8.00;99.90;;;;;;4936827;28;20050;-75
2022/12/26 08:18:33;;;;;;;52.08;32.58;;;7.90;99.90;;;;;;4937989;28;20051;-75
2022/12/26 08:20:59;;;;;;;50.45;32.58;;;7.90;99.90;;;;;;4928731;29;20044;-75
2022/12/26 08:23:26;;;;;;;46.15;31.73;;;8.00;99.90;;;;;;4940565;28;20159;-74
2022/12/26 08:25:51;;;;;;;44.30;30.80;;;7.90;99.90;;;;;;4918415;29;20062;-73
2022/12/26 08:28:18;;;;;;;45.50;30.38;;;7.90;99.90;;;;;;4920428;29;20134;-72
2022/12/26 08:30:44;;;;;;;41.88;28.45;;;7.90;99.90;;;;;;4920211;29;20110;-73
2022/12/26 08:33:10;;;;;;;42.35;28.40;;;7.90;99.90;;;;;;4922779;29;20051;-75
2022/12/26 08:35:37;;;;;;;41.67;28.38;;;8.00;99.90;;;;;;4937986;28;20102;-75
2022/12/26 08:38:04;;;;;;;38.22;25.48;;;8.00;99.90;;;;;;4933347;29;20455;-76
2022/12/26 08:40:30;;;;;;;36.35;26.38;;;8.00;99.90;;;;;;4943706;29;20114;-74
2022/12/26 08:42:55;;;;;;;33.20;21.45;;;8.00;99.90;;;;;;4934059;28;20154;-75
2022/12/26 08:45:22;;;;;;;38.00;25.75;;;8.00;99.90;;;;;;4923341;29;20043;-75
2022/12/26 08:47:48;;;;;;;33.70;23.02;;;8.10;99.90;;;;;;4939156;28;20490;-73
2022/12/26 08:50:15;;;;;;;34.28;22.80;;;8.10;99.90;;;;;;4939115;29;20403;-74
2022/12/26 08:52:41;;;;;;;32.08;22.42;;;8.20;99.90;;;;;;4929048;28;20086;-75
2022/12/26 08:55:07;;;;;;;29.70;20.48;;;8.30;99.90;;;;;;4926569;29;20051;-73
2022/12/26 08:57:33;;;;;;;28.40;21.25;;;8.40;99.90;;;;;;4920632;29;20035;-74
2022/12/26 08:59:58;;;;;;;29.10;21.15;;;8.50;99.90;;;;;;4920916;29;20043;-75
2022/12/26 09:02:24;;;;;;;26.98;19.40;;;8.60;99.90;;;;;;4928727;29;20054;-74
2022/12/26 09:04:50;;;;;;;23.98;18.73;;;8.60;99.90;;;;;;4933682;28;20051;-74
2022/12/26 09:07:17;;;;;;;25.48;17.15;;;8.70;99.90;;;;;;4920355;29;20649;-75
2022/12/26 09:09:43;;;;;;;24.33;17.05;;;8.70;99.90;;;;;;4921645;28;20051;-73
2022/12/26 09:12:09;;;;;;;22.02;16.25;;;8.70;99.90;;;;;;4920606;29;20048;-74
2022/12/26 09:14:35;;;;;;;23.05;17.10;;;8.80;99.90;;;;;;4932812;29;20608;-76
2022/12/26 09:17:01;;;;;;;20.27;14.75;;;8.90;99.90;;;;;;4943021;28;20047;-74
2022/12/26 09:19:31;;;;;;;19.05;14.52;;;8.90;99.90;;;;;;4939251;28;20040;-74
2022/12/26 09:24:55;;;;;;;18.20;13.45;;;9.00;99.90;;;;;;4918708;29;20061;-74
2022/12/26 09:27:21;;;;;;;17.45;10.93;;;9.00;99.90;;;;;;4956210;28;20051;-76
2022/12/26 09:29:46;;;;;;;18.02;11.55;;;9.10;99.90;;;;;;4921335;29;20051;-74
2022/12/26 09:32:12;;;;;;;19.92;12.10;;;9.00;99.90;;;;;;4928830;29;20036;-74
2022/12/26 09:34:38;;;;;;;15.52;11.43;;;9.00;99.90;;;;;;4941794;28;20081;-74
2022/12/26 09:37:03;;;;;;;17.30;11.48;;;9.10;99.90;;;;;;4922465;29;20047;-74
2022/12/26 09:39:29;;;;;;;15.90;9.93;;;9.10;99.90;;;;;;4928176;29;20090;-72
2022/12/26 09:42:13;;;;;;;15.90;10.20;;;9.10;99.90;;;;;;4939315;28;20098;-73
2022/12/26 09:44:51;;;;;;;18.40;11.23;;;9.10;99.90;;;;;;4940299;28;20058;-73
2022/12/26 09:47:31;;;;;;;15.85;9.77;;;9.20;99.90;;;;;;4936556;29;20055;-74
2022/12/26 09:50:05;;;;;;;15.52;9.38;;;9.10;99.90;;;;;;4938488;29;20050;-74
2022/12/26 09:53:05;;;;;;;14.70;9.07;;;9.20;99.90;;;;;;4938661;28;20475;-76
2022/12/26 09:55:40;;;;;;;11.63;7.38;;;9.20;99.90;;;;;;4926713;29;20059;-74
2022/12/26 09:58:32;;;;;;;11.38;5.50;;;9.30;99.90;;;;;;4938771;28;20066;-78
2022/12/26 10:01:14;;;;;;;12.55;6.43;;;9.30;99.90;;;;;;4923197;29;20051;-72
2022/12/26 10:03:43;;;;;;;10.73;5.75;;;9.40;99.90;;;;;;4944738;28;20380;-76
2022/12/26 10:06:18;;;;;;;9.00;5.78;;;9.40;99.90;;;;;;4956024;28;20055;-74
2022/12/26 10:09:03;;;;;;;9.75;5.35;;;9.50;99.90;;;;;;4942340;28;20392;-74
2022/12/26 10:11:40;;;;;;;11.43;5.10;;;9.50;99.90;;;;;;4930860;28;20056;-76
2022/12/26 10:14:24;;;;;;;9.65;4.32;;;9.50;99.90;;;;;;4923293;28;20055;-75
2022/12/26 10:17:33;;;;;;;10.63;4.32;;;9.60;99.90;;;;;;4956032;28;20102;-76
2022/12/26 10:20:20;;;;;;;9.90;4.55;;;9.60;99.90;;;;;;4942564;28;20051;-75
2022/12/26 10:23:33;;;;;;;9.95;4.50;;;9.60;99.90;;;;;;4933468;29;20055;-75
2022/12/26 10:26:08;;;;;;;10.65;4.03;;;9.60;99.90;;;;;;4923543;29;20047;-76
2022/12/26 10:28:46;;;;;;;11.70;4.10;;;9.50;99.90;;;;;;4937087;28;20058;-73
2022/12/26 10:31:25;;;;;;;11.75;3.88;;;9.60;99.90;;;;;;4918981;29;20484;-74
2022/12/26 10:34:15;;;;;;;12.57;2.72;;;9.50;99.90;;;;;;4935406;28;20077;-76
2022/12/26 10:37:09;;;;;;;13.05;2.88;;;9.30;99.90;;;;;;4933499;28;20432;-74
2022/12/26 10:39:41;;;;;;;15.77;2.70;;;9.10;99.90;;;;;;4933689;29;20051;-78
2022/12/26 10:42:44;;;;;;;13.40;2.45;;;8.90;99.90;;;;;;4946920;29;20059;-77
2022/12/26 10:45:15;;;;;;;11.55;2.13;;;8.80;99.90;;;;;;4939531;28;20048;-76
2022/12/26 10:47:44;;;;;;;11.23;2.15;;;8.70;99.90;;;;;;4925741;28;20513;-81
2022/12/26 10:50:27;;;;;;;12.75;2.40;;;8.70;99.90;;;;;;4939618;28;20047;-74
2022/12/26 10:52:54;;;;;;;12.77;2.10;;;8.60;99.90;;;;;;4921593;28;20046;-73
2022/12/26 10:55:28;;;;;;;14.23;2.00;;;8.50;99.90;;;;;;4942150;29;20047;-78
2022/12/26 10:57:54;;;;;;;12.23;2.10;;;8.50;99.90;;;;;;4928425;28;20044;-77
2022/12/26 11:00:23;;;;;;;11.80;2.22;;;8.60;99.90;;;;;;4919317;29;20074;-76
2022/12/26 11:03:11;;;;;;;12.50;2.00;;;8.50;99.90;;;;;;4930637;29;20101;-79
2022/12/26 11:05:43;;;;;;;10.20;1.90;;;8.50;99.90;;;;;;4935520;29;20062;-76
2022/12/26 11:08:18;;;;;;;9.00;1.90;;;8.40;99.90;;;;;;4933011;28;20055;-79
2022/12/26 11:11:01;;;;;;;9.10;1.50;;;8.50;99.90;;;;;;4937739;29;20051;-79
2022/12/26 11:13:27;;;;;;;;;;;8.50;99.90;;;;;;4937281;28;20043;-76
2022/12/26 11:15:53;;;;;;;9.73;1.98;;;8.40;99.90;;;;;;4921812;29;19952;-82
2022/12/26 11:18:47;;;;;;;12.23;1.92;;;8.30;99.90;;;;;;4935170;28;20078;-78
2022/12/26 11:21:21;;;;;;;8.07;1.65;;;8.30;99.90;;;;;;4927860;29;20060;-79
2022/12/26 11:23:51;;;;;;;9.60;1.73;;;8.20;99.90;;;;;;4935617;29;20475;-77
2022/12/26 11:26:30;;;;;;;8.55;1.52;;;8.10;99.90;;;;;;4934801;29;20056;-78
2022/12/26 11:29:14;;;;;;;11.68;1.90;;;8.20;99.90;;;;;;4924111;29;20126;-79
2022/12/26 11:31:48;;;;;;;9.30;1.77;;;8.10;99.90;;;;;;4943366;29;20055;-78
2022/12/26 11:34:25;;;;;;;9.48;1.50;;;8.00;99.90;;;;;;4924977;29;20039;-77
2022/12/26 11:36:51;;;;;;;10.48;1.70;;;7.90;99.90;;;;;;4947226;28;20039;-80
2022/12/26 11:39:36;;;;;;;8.70;1.83;;;7.90;99.90;;;;;;4944902;28;20038;-81
2022/12/26 11:42:10;;;;;;;15.48;3.65;;;7.80;99.90;;;;;;4917641;28;20246;-78
2022/12/26 11:44:40;;;;;;;13.82;2.22;;;7.70;99.90;;;;;;4877245;29;20129;-82
2022/12/26 11:47:19;;;;;;;9.68;1.55;;;7.80;99.90;;;;;;4920718;29;20522;-79
2022/12/26 11:50:07;;;;;;;9.25;1.67;;;7.70;99.90;;;;;;4933157;29;20064;-77
2022/12/26 11:52:37;;;;;;;10.88;1.80;;;7.50;99.90;;;;;;4934781;29;20036;-77
2022/12/26 11:55:22;;;;;;;11.30;2.85;;;7.50;99.90;;;;;;4916539;29;20047;-82
2022/12/26 11:58:12;;;;;;;9.98;2.63;;;7.50;99.90;;;;;;4931504;29;20048;-77
2022/12/26 12:00:50;;;;;;;11.02;1.92;;;7.50;99.90;;;;;;4930188;29;20051;-78
2022/12/26 12:03:31;;;;;;;11.38;1.63;;;7.50;99.90;;;;;;4915706;29;20106;-78
2022/12/26 12:06:08;;;;;;;9.10;1.70;;;7.50;99.90;;;;;;4920023;29;20048;-79
2022/12/26 12:08:50;;;;;;;11.13;1.60;;;7.50;99.90;;;;;;4921198;29;20450;-77
2022/12/26 12:11:40;;;;;;;8.13;1.57;;;7.60;99.90;;;;;;4911031;29;20052;-80
2022/12/26 12:14:14;;;;;;;9.40;2.30;;;7.50;99.90;;;;;;4917122;29;20055;-77
2022/12/26 12:17:00;;;;;;;9.82;1.90;;;7.50;99.90;;;;;;4919307;29;20135;-77
2022/12/26 12:20:04;;;;;;;10.15;2.03;;;7.50;99.90;;;;;;4918147;29;20389;-77
2022/12/26 12:22:51;;;;;;;18.33;2.00;;;7.50;99.90;;;;;;4932956;29;20044;-76
2022/12/26 12:25:31;;;;;;;12.00;2.47;;;7.50;99.90;;;;;;4916770;29;20377;-76
2022/12/26 12:28:00;;;;;;;12.13;1.90;;;7.50;99.90;;;;;;4933079;29;20055;-80
2022/12/26 12:30:53;;;;;;;12.57;2.08;;;7.40;99.90;;;;;;4933795;29;20127;-75
2022/12/26 12:33:25;;;;;;;9.05;1.95;;;7.40;99.90;;;;;;4928920;29;20055;-76
2022/12/26 12:36:26;;;;;;;10.40;2.80;;;7.40;99.90;;;;;;4936910;29;20484;-75
2022/12/26 12:39:14;;;;;;;13.73;2.28;;;7.40;99.90;;;;;;4932780;29;20447;-75
2022/12/26 12:42:11;;;;;;;9.32;1.80;;;7.40;99.90;;;;;;4924987;29;20055;-76
2022/12/26 12:45:09;;;;;;;12.38;2.10;;;7.50;99.90;;;;;;4925856;29;20061;-74
2022/12/26 12:47:44;;;;;;;13.85;2.38;;;7.50;99.90;;;;;;4938734;29;20135;-75
2022/12/26 12:50:31;;;;;;;12.77;2.50;;;7.60;99.90;;;;;;4926902;29;20051;-76
2022/12/26 12:53:17;;;;;;;12.93;2.20;;;7.70;99.90;;;;;;4930115;29;20487;-75
2022/12/26 12:55:45;;;;;;;16.77;2.70;;;7.70;99.90;;;;;;4933503;29;20054;-75
2022/12/26 12:58:19;;;;;;;13.90;2.45;;;7.80;99.90;;;;;;4945638;29;20488;-74
2022/12/26 13:00:50;;;;;;;15.85;2.85;;;7.80;99.90;;;;;;4935443;29;20055;-76
2022/12/26 13:03:25;;;;;;;12.90;2.33;;;7.80;99.90;;;;;;4931142;29;20091;-75
2022/12/26 13:06:08;;;;;;;14.93;2.50;;;7.80;99.90;;;;;;4933355;29;20415;-75
2022/12/26 13:09:02;;;;;;;11.23;2.30;;;7.70;99.90;;;;;;4932081;29;20039;-74
2022/12/26 13:11:49;;;;;;;18.65;2.60;;;7.60;99.90;;;;;;4915563;29;20051;-75
2022/12/26 13:14:18;;;;;;;14.48;2.47;;;7.50;99.90;;;;;;4954089;29;20195;-75
2022/12/26 13:16:49;;;;;;;13.98;2.47;;;7.40;99.90;;;;;;4933212;29;20524;-73
2022/12/26 13:19:25;;;;;;;16.30;2.60;;;7.30;99.90;;;;;;4935533;29;20392;-75
2022/12/26 13:21:55;;;;;;;13.98;2.65;;;7.20;99.90;;;;;;4928390;29;20443;-73
2022/12/26 13:24:35;;;;;;;13.90;2.72;;;7.10;99.90;;;;;;4931180;29;20047;-73
2022/12/26 13:27:18;;;;;;;13.48;2.80;;;7.10;99.90;;;;;;4931893;29;20106;-73
2022/12/26 13:29:46;;;;;;;11.80;2.85;;;7.00;99.90;;;;;;4951172;29;20062;-75
2022/12/26 13:32:27;;;;;;;14.57;2.63;;;7.00;99.90;;;;;;4933333;29;20106;-74
2022/12/26 13:34:58;;;;;;;15.82;2.72;;;7.00;99.90;;;;;;4933013;29;20047;-74
2022/12/26 13:37:36;;;;;;;13.63;2.65;;;6.90;99.90;;;;;;4935239;29;20051;-73
2022/12/26 13:40:12;;;;;;;15.70;2.90;;;6.90;99.90;;;;;;4935730;29;20500;-74
2022/12/26 13:45:41;;;;;;;13.73;2.60;;;6.90;99.90;;;;;;4952184;29;20500;-73
2022/12/26 13:48:16;;;;;;;15.68;2.60;;;6.90;99.90;;;;;;4934940;29;20039;-74
2022/12/26 13:50:52;;;;;;;13.52;2.58;;;6.80;99.90;;;;;;4936231;29;20062;-73
2022/12/26 13:53:23;;;;;;;15.23;2.88;;;6.80;99.90;;;;;;4933304;29;20047;-75
2022/12/26 13:55:57;;;;;;;13.55;2.50;;;6.80;99.90;;;;;;4937063;29;20491;-74
2022/12/26 13:58:33;;;;;;;12.82;2.20;;;6.80;99.90;;;;;;4913695;29;20074;-74
2022/12/26 14:01:21;;;;;;;13.23;2.45;;;6.80;99.90;;;;;;4946086;29;20483;-75
2022/12/26 14:04:18;;;;;;;11.82;2.40;;;6.80;99.90;;;;;;4935931;29;20055;-74
2022/12/26 14:07:16;;;;;;;12.35;2.35;;;6.70;99.90;;;;;;4928000;29;20043;-74
2022/12/26 14:10:13;;;;;;;15.10;2.70;;;6.70;99.90;;;;;;4934430;29;20565;-74
2022/12/26 14:13:26;;;;;;;14.25;3.13;;;6.70;99.90;;;;;;4935814;29;20062;-74
2022/12/26 14:16:29;;;;;;;13.23;2.10;;;6.70;99.90;;;;;;4950236;29;20054;-75
2022/12/26 14:19:21;;;;;;;;;;;6.60;99.90;;;;;;4926800;29;20070;-73
2022/12/26 14:22:01;;;;;;;15.63;2.70;;;6.60;99.90;;;;;;4899379;29;19922;-73
2022/12/26 14:24:55;;;;;;;13.13;2.65;;;6.60;99.90;;;;;;4932867;29;20058;-74
2022/12/26 14:27:25;;;;;;;14.13;2.63;;;6.60;99.90;;;;;;4900209;29;20055;-74
2022/12/26 14:29:54;;;;;;;14.95;3.30;;;6.50;99.90;;;;;;4933639;29;20063;-74
2022/12/26 14:32:29;;;;;;;15.20;2.88;;;6.50;99.90;;;;;;4932951;29;20101;-74
2022/12/26 14:35:22;;;;;;;17.88;2.90;;;6.50;99.90;;;;;;4941433;29;20055;-74
2022/12/26 14:38:10;;;;;;;15.23;2.70;;;6.50;99.90;;;;;;4948758;29;20102;-74
2022/12/26 14:40:37;;;;;;;12.82;2.78;;;6.50;99.90;;;;;;4934048;29;20066;-73
2022/12/26 14:43:15;;;;;;;15.77;2.80;;;6.50;99.90;;;;;;4912841;29;20476;-74
2022/12/26 14:45:45;;;;;;;13.15;2.47;;;6.50;99.90;;;;;;4924638;29;20091;-74
2022/12/26 14:48:14;;;;;;;14.18;3.05;;;6.60;99.90;;;;;;4927846;29;20047;-74
2022/12/26 14:50:56;;;;;;;16.67;3.15;;;6.60;99.90;;;;;;4924315;29;20433;-74
2022/12/26 14:53:27;;;;;;;13.73;2.85;;;6.60;99.90;;;;;;4917181;29;20102;-74
2022/12/26 14:56:14;;;;;;;15.00;2.42;;;6.50;99.90;;;;;;4932477;29;20055;-74
2022/12/26 14:58:44;;;;;;;12.32;2.35;;;6.50;99.90;;;;;;4933412;29;20058;-74
2022/12/26 15:01:14;;;;;;;13.70;2.58;;;6.40;99.90;;;;;;4929755;29;20179;-74
2022/12/26 15:04:08;;;;;;;13.82;2.50;;;6.40;99.90;;;;;;4946304;29;20519;-74
2022/12/26 15:06:58;;;;;;;12.57;2.10;;;6.30;99.90;;;;;;4927332;29;20079;-74
2022/12/26 15:10:02;;;;;;;13.15;2.35;;;6.30;99.90;;;;;;4929468;29;20130;-74
2022/12/26 15:12:33;;;;;;;14.35;2.60;;;6.30;99.90;;;;;;4942993;29;20047;-73
2022/12/26 15:15:31;;;;;;;11.95;2.28;;;6.30;99.90;;;;;;4919609;29;20106;-75
2022/12/26 15:18:19;;;;;;;13.05;2.60;;;6.20;99.90;;;;;;4927880;29;20059;-74
2022/12/26 15:21:03;;;;;;;15.70;3.00;;;6.10;99.90;;;;;;4949701;29;20134;-74
2022/12/26 15:23:56;;;;;;;12.88;2.95;;;6.10;99.90;;;;;;4942215;29;20388;-74
2022/12/26 15:26:57;;;;;;;16.33;2.70;;;6.00;99.90;;;;;;4927850;29;20051;-74